createdAt,value
2019-02-17T00:00:03.155Z,97.5
2019-02-17T00:01:03.400Z,96.6
2019-02-17T00:02:03.897Z,97
2019-02-17T00:03:03.273Z,97.3
2019-02-17T00:04:02.840Z,96.1
2019-02-17T00:05:03.088Z,96.8
2019-02-17T00:06:03.371Z,95.4
2019-02-17T00:07:03.324Z,96.8
2019-02-17T00:08:03.621Z,95.9
2019-02-17T00:09:03.161Z,96.6
2019-02-17T00:10:03.991Z,97.7
2019-02-17T00:11:03.127Z,97.3
2019-02-17T00:12:03.848Z,97.7
2019-02-17T00:13:03.062Z,96.1
2019-02-17T00:14:03.427Z,96.1
2019-02-17T00:15:03.299Z,96.8
2019-02-17T00:16:03.577Z,95.2
2019-02-17T00:17:03.145Z,95.9
2019-02-17T00:18:03.485Z,96.3
2019-02-17T00:19:02.786Z,96.1
2019-02-17T00:20:03.348Z,98.2
2019-02-17T00:21:03.152Z,98.2
2019-02-17T00:22:03.539Z,98.4
2019-02-17T00:23:02.921Z,98.7
2019-02-17T00:24:03.499Z,98.2
2019-02-17T00:25:02.955Z,98.2
2019-02-17T00:26:03.521Z,98.7
2019-02-17T00:27:02.871Z,97.5
2019-02-17T00:28:03.486Z,97.5
2019-02-17T00:29:02.929Z,98.7
2019-02-17T00:30:03.605Z,99.1
2019-02-17T00:31:03.160Z,97.7
2019-02-17T00:32:03.304Z,100.1
2019-02-17T00:33:03.071Z,98.4
2019-02-17T00:34:03.159Z,98.2
2019-02-17T00:35:03.492Z,96.8
2019-02-17T00:36:03.001Z,96.8
2019-02-17T00:37:03.786Z,94.9
2019-02-17T00:38:02.911Z,97
2019-02-17T00:39:03.671Z,95.4
2019-02-17T00:40:03.419Z,95.2
2019-02-17T00:41:03.710Z,96.3
2019-02-17T00:42:03.275Z,95.2
2019-02-17T00:43:03.566Z,96.6
2019-02-17T00:44:03.911Z,96.1
2019-02-17T00:45:03.672Z,96.1
2019-02-17T00:46:03.362Z,95.4
2019-02-17T00:47:03.690Z,96.1
2019-02-17T00:48:02.845Z,98
2019-02-17T00:49:03.583Z,98
2019-02-17T00:50:03.827Z,100.5
2019-02-17T00:51:03.521Z,100.8
2019-02-17T00:52:03.579Z,100.8
2019-02-17T00:53:03.399Z,100.1
2019-02-17T00:54:03.599Z,99.4
2019-02-17T00:55:03.884Z,99.6
2019-02-17T00:56:03.351Z,99.6
2019-02-17T00:57:03.784Z,98.4
2019-02-17T00:58:03.211Z,96.6
2019-02-17T00:59:10.822Z,96.3
2019-02-17T01:00:03.303Z,95.2
2019-02-17T01:01:03.254Z,95.9
2019-02-17T01:02:02.914Z,94.7
2019-02-17T01:03:03.373Z,94.5
2019-02-17T01:04:02.653Z,93.5
2019-02-17T01:05:03.340Z,93.8
2019-02-17T01:06:02.822Z,92.4
2019-02-17T01:07:03.068Z,95.4
2019-02-17T01:08:03.738Z,93.3
2019-02-17T01:09:03.126Z,94.5
2019-02-17T01:10:03.623Z,95.6
2019-02-17T01:11:03.547Z,94
2019-02-17T01:12:03.509Z,95.2
2019-02-17T01:13:03.745Z,95.4
2019-02-17T01:14:03.369Z,96.1
2019-02-17T01:15:03.993Z,96.1
2019-02-17T01:16:03.208Z,95.4
2019-02-17T01:17:03.841Z,95.9
2019-02-17T01:18:03.206Z,96.6
2019-02-17T01:19:03.737Z,95.2
2019-02-17T01:20:03.119Z,95.2
2019-02-17T01:21:03.715Z,95.2
2019-02-17T01:22:03.692Z,94.5
2019-02-17T01:23:03.403Z,94.5
2019-02-17T01:24:03.023Z,94.2
2019-02-17T01:25:03.330Z,93.3
2019-02-17T01:26:03.762Z,94.2
2019-02-17T01:27:03.005Z,94.2
2019-02-17T01:28:03.354Z,94.5
2019-02-17T01:29:02.952Z,94.9
2019-02-17T01:30:02.913Z,94.7
2019-02-17T01:31:03.541Z,95.2
2019-02-17T01:32:03.767Z,94.9
2019-02-17T01:33:03.209Z,95.9
2019-02-17T01:34:03.677Z,95.4
2019-02-17T01:35:03.500Z,97.3
2019-02-17T01:36:03.443Z,95.4
2019-02-17T01:37:03.457Z,97
2019-02-17T01:38:03.805Z,99.8
2019-02-17T01:39:03.327Z,98.4
2019-02-17T01:40:03.646Z,100.1
2019-02-17T01:41:03.217Z,100.8
2019-02-17T01:42:03.716Z,101
2019-02-17T01:43:03.371Z,101
2019-02-17T01:44:03.611Z,103.1
2019-02-17T01:45:02.951Z,101.2
2019-02-17T01:46:03.673Z,101.5
2019-02-17T01:47:03.374Z,102.4
2019-02-17T01:48:03.839Z,100.3
2019-02-17T01:49:03.300Z,99.6
2019-02-17T01:50:03.747Z,99.1
2019-02-17T01:51:03.412Z,99.1
2019-02-17T01:52:03.672Z,99.4
2019-02-17T01:53:02.822Z,98.9
2019-02-17T01:54:03.374Z,98.9
2019-02-17T01:55:03.008Z,98.9
2019-02-17T01:56:03.053Z,99.1
2019-02-17T01:57:02.978Z,98.4
2019-02-17T01:58:03.547Z,98.4
2019-02-17T01:59:02.857Z,99.4
2019-02-17T02:00:03.531Z,97.7
2019-02-17T02:01:03.767Z,99.1
2019-02-17T02:02:03.574Z,99.1
2019-02-17T02:03:03.119Z,100.5
2019-02-17T02:04:03.782Z,100.3
2019-02-17T02:05:03.196Z,100.3
2019-02-17T02:06:03.677Z,98.9
2019-02-17T02:07:03.071Z,98.2
2019-02-17T02:08:03.830Z,97.3
2019-02-17T02:09:03.237Z,98.2
2019-02-17T02:10:03.870Z,97.5
2019-02-17T02:11:03.327Z,98.7
2019-02-17T02:12:02.820Z,97.5
2019-02-17T02:13:03.082Z,97.5
2019-02-17T02:14:02.830Z,97.7
2019-02-17T02:15:03.290Z,97.7
2019-02-17T02:16:02.700Z,96.8
2019-02-17T02:17:03.289Z,97
2019-02-17T02:18:03.466Z,97.7
2019-02-17T02:19:03.322Z,97.5
2019-02-17T02:20:03.905Z,98.4
2019-02-17T02:21:03.282Z,99.8
2019-02-17T02:22:02.816Z,99.8
2019-02-17T02:23:03.778Z,99.8
2019-02-17T02:24:03.218Z,102.2
2019-02-17T02:25:03.859Z,100.3
2019-02-17T02:26:03.015Z,103.3
2019-02-17T02:27:03.374Z,103.3
2019-02-17T02:28:02.869Z,103.1
2019-02-17T02:29:03.636Z,103.1
2019-02-17T02:30:03.284Z,102.6
2019-02-17T02:31:03.462Z,102.6
2019-02-17T02:32:02.959Z,101.7
2019-02-17T02:33:02.931Z,101.7
2019-02-17T02:34:03.278Z,101.5
2019-02-17T02:35:04.035Z,99.8
2019-02-17T02:36:03.081Z,99.8
2019-02-17T02:37:02.993Z,99.1
2019-02-17T02:38:03.522Z,100.3
2019-02-17T02:39:03.439Z,98.4
2019-02-17T02:40:03.769Z,97.3
2019-02-17T02:41:03.245Z,98.2
2019-02-17T02:42:03.392Z,98.2
2019-02-17T02:43:03.285Z,99.1
2019-02-17T02:44:03.539Z,99.1
2019-02-17T02:45:03.155Z,98.4
2019-02-17T02:46:03.631Z,99.6
2019-02-17T02:47:03.298Z,98.9
2019-02-17T02:48:03.137Z,99.4
2019-02-17T02:49:03.403Z,100.5
2019-02-17T02:50:03.110Z,100.3
2019-02-17T02:51:03.395Z,100.1
2019-02-17T02:52:03.326Z,99.4
2019-02-17T02:53:03.584Z,99.4
2019-02-17T02:54:03.109Z,98.4
2019-02-17T02:55:03.508Z,99.1
2019-02-17T02:56:03.657Z,98.2
2019-02-17T02:57:03.133Z,100.8
2019-02-17T02:58:03.758Z,98
2019-02-17T02:59:03.380Z,99.4
2019-02-17T03:00:03.518Z,99.4
2019-02-17T03:01:02.746Z,99.8
2019-02-17T03:02:03.370Z,99.6
2019-02-17T03:03:02.775Z,98.4
2019-02-17T03:04:03.795Z,98.4
2019-02-17T03:05:03.274Z,99.1
2019-02-17T03:06:03.465Z,100.5
2019-02-17T03:07:03.270Z,100.5
2019-02-17T03:08:03.514Z,101.7
2019-02-17T03:09:03.621Z,101
2019-02-17T03:10:03.722Z,101.2
2019-02-17T03:11:03.078Z,100.1
2019-02-17T03:12:03.585Z,98.9
2019-02-17T03:13:02.904Z,100.1
2019-02-17T03:14:03.736Z,99.8
2019-02-17T03:15:03.132Z,100.1
2019-02-17T03:16:03.342Z,98.2
2019-02-17T03:17:03.079Z,98.9
2019-02-17T03:18:03.543Z,97.3
2019-02-17T03:19:03.319Z,98
2019-02-17T03:20:03.116Z,96.3
2019-02-17T03:21:03.780Z,98.2
2019-02-17T03:22:03.253Z,96.1
2019-02-17T03:23:02.932Z,96.1
2019-02-17T03:24:03.424Z,96.3
2019-02-17T03:25:03.158Z,94.7
2019-02-17T03:26:03.315Z,94.7
2019-02-17T03:27:03.374Z,96.1
2019-02-17T03:28:03.031Z,94.2
2019-02-17T03:29:03.552Z,96.1
2019-02-17T03:30:06.570Z,95.2
2019-02-17T03:31:03.769Z,95.2
2019-02-17T03:32:03.854Z,95.6
2019-02-17T03:33:03.590Z,96.6
2019-02-17T03:34:03.516Z,96.3
2019-02-17T03:35:03.154Z,96.3
2019-02-17T03:36:03.409Z,96.3
2019-02-17T03:37:03.756Z,95.9
2019-02-17T03:38:03.503Z,95.9
2019-02-17T03:39:02.874Z,97
2019-02-17T03:40:03.394Z,96.8
2019-02-17T03:41:03.359Z,95.4
2019-02-17T03:42:03.176Z,95.4
2019-02-17T03:43:03.552Z,95.4
2019-02-17T03:44:03.258Z,94
2019-02-17T03:45:03.161Z,94.7
2019-02-17T03:46:02.831Z,93.1
2019-02-17T03:47:03.493Z,93.5
2019-02-17T03:48:03.056Z,92.8
2019-02-17T03:49:03.395Z,91.7
2019-02-17T03:50:03.209Z,92.4
2019-02-17T03:51:03.329Z,93.1
2019-02-17T03:52:03.610Z,91.9
2019-02-17T03:53:02.862Z,93.8
2019-02-17T03:54:03.300Z,91
2019-02-17T03:55:03.220Z,93.3
2019-02-17T03:56:03.414Z,92.4
2019-02-17T03:57:02.951Z,94
2019-02-17T03:58:03.249Z,91.4
2019-02-17T03:59:03.607Z,92.1
2019-02-17T04:00:03.329Z,91
2019-02-17T04:01:03.887Z,91.7
2019-02-17T04:02:03.578Z,90.7
2019-02-17T04:03:03.885Z,90
2019-02-17T04:04:03.202Z,90.3
2019-02-17T04:05:03.400Z,90
2019-02-17T04:06:04.293Z,90
2019-02-17T04:07:03.551Z,88.6
2019-02-17T04:08:03.732Z,87.9
2019-02-17T04:09:03.123Z,88.9
2019-02-17T04:10:03.975Z,88.9
2019-02-17T04:11:02.861Z,89.1
2019-02-17T04:12:04.008Z,88.6
2019-02-17T04:13:03.203Z,88.6
2019-02-17T04:14:03.433Z,88.4
2019-02-17T04:15:03.817Z,87.9
2019-02-17T04:16:03.171Z,87.7
2019-02-17T04:17:03.769Z,89.8
2019-02-17T04:18:03.144Z,89.1
2019-02-17T04:19:03.756Z,90
2019-02-17T04:20:03.156Z,88.6
2019-02-17T04:21:03.680Z,88.4
2019-02-17T04:22:03.120Z,87.2
2019-02-17T04:23:03.489Z,86.8
2019-02-17T04:24:03.827Z,86.3
2019-02-17T04:25:03.448Z,86.1
2019-02-17T04:26:03.957Z,84.4
2019-02-17T04:27:03.068Z,85.4
2019-02-17T04:28:03.802Z,84
2019-02-17T04:29:03.131Z,84.2
2019-02-17T04:30:04.214Z,84.2
2019-02-17T04:31:02.980Z,84.4
2019-02-17T04:32:03.613Z,84.9
2019-02-17T04:33:03.066Z,85.6
2019-02-17T04:34:03.802Z,85.1
2019-02-17T04:35:03.356Z,86.3
2019-02-17T04:36:03.454Z,88.4
2019-02-17T04:37:03.071Z,88.4
2019-02-17T04:38:03.570Z,87.7
2019-02-17T04:39:03.235Z,88.2
2019-02-17T04:40:03.649Z,85.8
2019-02-17T04:41:03.008Z,87.5
2019-02-17T04:42:03.494Z,86.8
2019-02-17T04:43:02.836Z,86.8
2019-02-17T04:44:03.374Z,86.8
2019-02-17T04:45:03.109Z,86.5
2019-02-17T04:46:03.113Z,84.9
2019-02-17T04:47:02.955Z,87
2019-02-17T04:48:03.083Z,85.6
2019-02-17T04:49:02.741Z,86.1
2019-02-17T04:50:03.222Z,85.6
2019-02-17T04:51:03.709Z,85.6
2019-02-17T04:52:03.318Z,85.6
2019-02-17T04:53:03.614Z,85.6
2019-02-17T04:54:03.297Z,84.7
2019-02-17T04:55:03.570Z,87.2
2019-02-17T04:56:03.083Z,84
2019-02-17T04:57:03.785Z,86.5
2019-02-17T04:58:02.951Z,87
2019-02-17T04:59:03.770Z,87
2019-02-17T05:00:03.055Z,86.8
2019-02-17T05:01:03.759Z,86.3
2019-02-17T05:02:03.275Z,86.8
2019-02-17T05:03:02.916Z,86.1
2019-02-17T05:04:03.014Z,86.8
2019-02-17T05:05:03.795Z,86.3
2019-02-17T05:06:03.745Z,86.3
2019-02-17T05:07:03.174Z,87.5
2019-02-17T05:08:03.628Z,88.6
2019-02-17T05:09:02.949Z,87.9
2019-02-17T05:10:03.555Z,89.1
2019-02-17T05:11:03.543Z,90.7
2019-02-17T05:12:03.469Z,91.2
2019-02-17T05:13:03.283Z,90
2019-02-17T05:14:02.971Z,90.3
2019-02-17T05:15:03.574Z,90.3
2019-02-17T05:16:02.578Z,90.7
2019-02-17T05:17:03.250Z,87.5
2019-02-17T05:18:03.566Z,89.6
2019-02-17T05:19:03.243Z,88.9
2019-02-17T05:20:03.570Z,89.8
2019-02-17T05:21:03.142Z,90
2019-02-17T05:22:03.597Z,90
2019-02-17T05:23:03.114Z,90.7
2019-02-17T05:24:03.320Z,89.8
2019-02-17T05:25:03.376Z,90.7
2019-02-17T05:26:03.380Z,90.7
2019-02-17T05:27:02.942Z,91
2019-02-17T05:28:03.677Z,91.7
2019-02-17T05:29:02.952Z,90.5
2019-02-17T05:30:03.549Z,91.2
2019-02-17T05:31:02.898Z,89.1
2019-02-17T05:32:03.491Z,87.9
2019-02-17T05:33:02.914Z,87.2
2019-02-17T05:34:03.681Z,87.9
2019-02-17T05:35:03.124Z,86.5
2019-02-17T05:36:03.766Z,86.3
2019-02-17T05:37:02.930Z,85.4
2019-02-17T05:38:03.273Z,84
2019-02-17T05:39:03.173Z,84.2
2019-02-17T05:40:03.374Z,83.7
2019-02-17T05:41:03.025Z,84.2
2019-02-17T05:42:03.170Z,84
2019-02-17T05:43:03.062Z,84.4
2019-02-17T05:44:03.274Z,84.4
2019-02-17T05:45:02.765Z,85.1
2019-02-17T05:46:03.137Z,85.1
2019-02-17T05:47:03.515Z,84
2019-02-17T05:48:03.198Z,84
2019-02-17T05:49:03.670Z,84.4
2019-02-17T05:50:02.917Z,84.4
2019-02-17T05:51:03.788Z,84.7
2019-02-17T05:52:03.797Z,84.2
2019-02-17T05:53:03.282Z,84.2
2019-02-17T05:54:03.773Z,84.2
2019-02-17T05:55:02.964Z,83.5
2019-02-17T05:56:02.849Z,84
2019-02-17T05:57:02.839Z,84
2019-02-17T05:58:03.392Z,84.4
2019-02-17T05:59:02.870Z,83.7
2019-02-17T06:00:03.415Z,83.7
2019-02-17T06:01:07.649Z,83
2019-02-17T06:02:03.247Z,82.8
2019-02-17T06:03:03.069Z,83.7
2019-02-17T06:04:03.434Z,83.7
2019-02-17T06:05:03.972Z,84.4
2019-02-17T06:06:03.432Z,83.7
2019-02-17T06:07:03.537Z,85.8
2019-02-17T06:08:03.365Z,84
2019-02-17T06:09:03.626Z,83
2019-02-17T06:10:03.179Z,83.5
2019-02-17T06:11:03.486Z,83.7
2019-02-17T06:12:03.046Z,84
2019-02-17T06:13:04.094Z,82.8
2019-02-17T06:14:03.102Z,84
2019-02-17T06:15:03.714Z,84
2019-02-17T06:16:03.132Z,85.8
2019-02-17T06:17:03.643Z,85.8
2019-02-17T06:18:02.760Z,87
2019-02-17T06:19:03.572Z,87.7
2019-02-17T06:20:02.896Z,89.1
2019-02-17T06:21:03.650Z,87.5
2019-02-17T06:22:02.848Z,88.6
2019-02-17T06:23:03.087Z,89.1
2019-02-17T06:24:03.875Z,89.1
2019-02-17T06:25:03.260Z,87.9
2019-02-17T06:26:03.625Z,90.5
2019-02-17T06:27:02.975Z,88.9
2019-02-17T06:28:02.925Z,89.8
2019-02-17T06:29:02.891Z,88.6
2019-02-17T06:30:03.636Z,90.3
2019-02-17T06:31:15.019Z,90.3
2019-02-17T06:32:03.412Z,89.8
2019-02-17T06:33:03.701Z,90.3
2019-02-17T06:34:03.586Z,90
2019-02-17T06:35:02.986Z,89.8
2019-02-17T06:36:03.183Z,89.8
2019-02-17T06:37:03.730Z,91
2019-02-17T06:38:03.396Z,90
2019-02-17T06:39:03.768Z,90.7
2019-02-17T06:40:03.639Z,90.5
2019-02-17T06:41:03.100Z,90.7
2019-02-17T06:42:03.712Z,90
2019-02-17T06:43:03.020Z,92.1
2019-02-17T06:44:03.554Z,90.7
2019-02-17T06:45:03.867Z,92.4
2019-02-17T06:46:03.462Z,93.8
2019-02-17T06:47:04.011Z,94.9
2019-02-17T06:48:03.337Z,94.9
2019-02-17T06:49:03.606Z,95.4
2019-02-17T06:50:03.180Z,95.6
2019-02-17T06:51:03.768Z,96.8
2019-02-17T06:52:03.350Z,96.6
2019-02-17T06:53:03.087Z,98
2019-02-17T06:54:03.124Z,98.2
2019-02-17T06:55:03.739Z,98.2
2019-02-17T06:56:03.275Z,98.4
2019-02-17T06:57:03.784Z,98
2019-02-17T06:58:02.901Z,98.9
2019-02-17T06:59:03.882Z,97.5
2019-02-17T07:00:03.139Z,100.1
2019-02-17T07:01:03.580Z,101
2019-02-17T07:02:03.145Z,101
2019-02-17T07:03:03.480Z,101.2
2019-02-17T07:04:03.164Z,100.5
2019-02-17T07:05:03.881Z,100.3
2019-02-17T07:06:03.141Z,99.4
2019-02-17T07:07:03.648Z,99.1
2019-02-17T07:08:03.179Z,99.8
2019-02-17T07:09:05.086Z,97.7
2019-02-17T07:10:03.469Z,98.7
2019-02-17T07:11:03.388Z,97.5
2019-02-17T07:12:03.917Z,98.9
2019-02-17T07:13:03.375Z,98.2
2019-02-17T07:14:03.423Z,98.9
2019-02-17T07:15:02.707Z,98.9
2019-02-17T07:16:03.166Z,97.7
2019-02-17T07:17:03.888Z,95.9
2019-02-17T07:18:03.002Z,96.3
2019-02-17T07:19:02.891Z,95.9
2019-02-17T07:20:03.415Z,95.6
2019-02-17T07:21:02.953Z,96.3
2019-02-17T07:22:03.294Z,95.4
2019-02-17T07:23:03.051Z,96.6
2019-02-17T07:24:03.543Z,95.2
2019-02-17T07:25:03.005Z,93.8
2019-02-17T07:26:03.462Z,94.7
2019-02-17T07:27:03.276Z,94.2
2019-02-17T07:28:03.470Z,94.5
2019-02-17T07:29:02.966Z,94.2
2019-02-17T07:30:03.518Z,93.3
2019-02-17T07:31:02.917Z,93.3
2019-02-17T07:32:03.706Z,93.5
2019-02-17T07:33:03.962Z,93.5
2019-02-17T07:34:03.582Z,94
2019-02-17T07:35:03.124Z,94.2
2019-02-17T07:36:03.301Z,94.5
2019-02-17T07:37:03.851Z,94.5
2019-02-17T07:38:03.086Z,94
2019-02-17T07:39:03.483Z,94.7
2019-02-17T07:40:03.144Z,94.7
2019-02-17T07:41:03.554Z,94.5
2019-02-17T07:42:02.963Z,95.6
2019-02-17T07:43:03.581Z,95.4
2019-02-17T07:44:02.787Z,94.7
2019-02-17T07:45:03.670Z,94.2
2019-02-17T07:46:02.723Z,94.5
2019-02-17T07:47:04.110Z,92.6
2019-02-17T07:48:03.102Z,91.9
2019-02-17T07:49:04.104Z,90.5
2019-02-17T07:50:03.005Z,90.5
2019-02-17T07:51:03.554Z,90.5
2019-02-17T07:52:03.133Z,90
2019-02-17T07:53:03.293Z,89.8
2019-02-17T07:54:02.959Z,90.5
2019-02-17T07:55:03.569Z,89.8
2019-02-17T07:56:02.951Z,91
2019-02-17T07:57:03.499Z,91
2019-02-17T07:58:02.921Z,91
2019-02-17T07:59:03.334Z,90.5
2019-02-17T08:00:03.152Z,90.3
2019-02-17T08:01:03.531Z,90.3
2019-02-17T08:02:02.883Z,88.9
2019-02-17T08:03:03.619Z,88.2
2019-02-17T08:04:02.960Z,88.2
2019-02-17T08:05:03.070Z,89.6
2019-02-17T08:06:02.854Z,90.7
2019-02-17T08:07:03.284Z,91.9
2019-02-17T08:08:03.654Z,91.9
2019-02-17T08:09:03.436Z,89.8
2019-02-17T08:10:03.058Z,89.8
2019-02-17T08:11:04.699Z,89.3
2019-02-17T08:12:02.918Z,90.5
2019-02-17T08:13:03.417Z,87.5
2019-02-17T08:14:03.185Z,89.8
2019-02-17T08:15:03.671Z,89.8
2019-02-17T08:16:03.379Z,88.6
2019-02-17T08:17:03.508Z,89.3
2019-02-17T08:18:03.293Z,88.9
2019-02-17T08:19:03.708Z,88.4
2019-02-17T08:20:03.571Z,88.4
2019-02-17T08:21:03.121Z,88.2
2019-02-17T08:22:03.823Z,87.5
2019-02-17T08:23:03.092Z,88.2
2019-02-17T08:24:03.400Z,88.2
2019-02-17T08:25:03.938Z,89.1
2019-02-17T08:26:03.085Z,89.1
2019-02-17T08:27:04.884Z,90.3
2019-02-17T08:28:02.923Z,90.5
2019-02-17T08:29:03.461Z,91.4
2019-02-17T08:30:02.952Z,90.7
2019-02-17T08:31:03.258Z,90.7
2019-02-17T08:32:03.091Z,92.8
2019-02-17T08:33:03.639Z,92.1
2019-02-17T08:34:03.156Z,92.6
2019-02-17T08:35:03.157Z,92.6
2019-02-17T08:36:03.710Z,93.5
2019-02-17T08:37:03.001Z,93.8
2019-02-17T08:38:03.839Z,92.8
2019-02-17T08:39:02.885Z,92.8
2019-02-17T08:40:03.256Z,92.8
2019-02-17T08:41:03.534Z,92.1
2019-02-17T08:42:03.119Z,92.1
2019-02-17T08:43:03.670Z,91.2
2019-02-17T08:44:03.430Z,92.6
2019-02-17T08:45:03.415Z,93.1
2019-02-17T08:46:03.102Z,93.1
2019-02-17T08:47:03.607Z,92.6
2019-02-17T08:48:03.100Z,93.3
2019-02-17T08:49:03.185Z,93.8
2019-02-17T08:50:03.076Z,93.8
2019-02-17T08:51:03.494Z,94.7
2019-02-17T08:52:03.047Z,92.8
2019-02-17T08:53:03.804Z,92.8
2019-02-17T08:54:03.412Z,93.1
2019-02-17T08:55:03.654Z,91.7
2019-02-17T08:56:03.325Z,90.7
2019-02-17T08:57:02.897Z,92.4
2019-02-17T08:58:03.313Z,92.1
2019-02-17T08:59:03.011Z,92.1
2019-02-17T09:00:03.081Z,93.3
2019-02-17T09:01:03.203Z,93.3
2019-02-17T09:02:06.615Z,94
2019-02-17T09:03:03.243Z,93.1
2019-02-17T09:04:03.824Z,93.8
2019-02-17T09:05:03.264Z,92.8
2019-02-17T09:06:02.822Z,92.8
2019-02-17T09:07:03.517Z,92.4
2019-02-17T09:08:04.281Z,89.8
2019-02-17T09:09:03.158Z,92.8
2019-02-17T09:10:03.867Z,92.8
2019-02-17T09:11:03.069Z,93.8
2019-02-17T09:12:03.372Z,92.8
2019-02-17T09:13:03.107Z,92.8
2019-02-17T09:14:03.795Z,94.5
2019-02-17T09:15:03.268Z,93.3
2019-02-17T09:16:03.449Z,93.5
2019-02-17T09:17:02.946Z,93.5
2019-02-17T09:18:03.546Z,94
2019-02-17T09:19:02.764Z,93.8
2019-02-17T09:20:03.268Z,93.8
2019-02-17T09:21:03.546Z,93.8
2019-02-17T09:22:02.980Z,94
2019-02-17T09:23:03.414Z,95.9
2019-02-17T09:24:02.982Z,95.9
2019-02-17T09:25:03.418Z,96.8
2019-02-17T09:26:02.815Z,96.6
2019-02-17T09:27:03.264Z,96.1
2019-02-17T09:28:03.749Z,94.9
2019-02-17T09:29:03.084Z,94
2019-02-17T09:30:03.629Z,94
2019-02-17T09:31:02.885Z,92.6
2019-02-17T09:32:03.419Z,92.6
2019-02-17T09:33:03.861Z,91.4
2019-02-17T09:34:03.122Z,89.8
2019-02-17T09:35:03.682Z,90
2019-02-17T09:36:03.384Z,89.3
2019-02-17T09:37:03.807Z,89.3
2019-02-17T09:38:03.252Z,89.1
2019-02-17T09:39:03.700Z,91.2
2019-02-17T09:40:03.292Z,91.2
2019-02-17T09:41:03.607Z,92.4
2019-02-17T09:42:03.602Z,91.4
2019-02-17T09:43:03.234Z,90.7
2019-02-17T09:44:03.034Z,90.7
2019-02-17T09:45:02.860Z,90
2019-02-17T09:46:02.956Z,90.3
2019-02-17T09:47:03.666Z,89.8
2019-02-17T09:48:02.748Z,89.8
2019-02-17T09:49:03.451Z,89.6
2019-02-17T09:50:02.972Z,89.8
2019-02-17T09:51:03.280Z,90.3
2019-02-17T09:52:03.593Z,90.3
2019-02-17T09:53:03.023Z,93.1
2019-02-17T09:54:03.512Z,91.9
2019-02-17T09:55:03.072Z,89.6
2019-02-17T09:56:03.732Z,89.6
2019-02-17T09:57:03.071Z,90.7
2019-02-17T09:58:02.927Z,90.7
2019-02-17T09:59:03.065Z,89.8
2019-02-17T10:00:03.063Z,91.9
2019-02-17T10:01:03.337Z,92.1
2019-02-17T10:02:02.953Z,92.6
2019-02-17T10:03:03.464Z,92.6
2019-02-17T10:04:03.343Z,92.8
2019-02-17T10:05:03.327Z,92.8
2019-02-17T10:06:03.172Z,94.2
2019-02-17T10:07:03.723Z,93.3
2019-02-17T10:08:03.356Z,93.3
2019-02-17T10:09:03.103Z,94.5
2019-02-17T10:10:03.377Z,91.7
2019-02-17T10:11:02.955Z,91.7
2019-02-17T10:12:03.154Z,91.7
2019-02-17T10:13:03.714Z,94.2
2019-02-17T10:14:02.062Z,93.8
2019-02-17T10:15:03.010Z,93.8
2019-02-17T10:16:03.116Z,94
2019-02-17T10:17:02.944Z,94.7
2019-02-17T10:18:03.185Z,95.6
2019-02-17T10:19:03.584Z,95.6
2019-02-17T10:20:03.155Z,95.9
2019-02-17T10:21:03.145Z,97.3
2019-02-17T10:22:03.040Z,96.6
2019-02-17T10:23:03.233Z,96.6
2019-02-17T10:24:03.601Z,96.1
2019-02-17T10:25:03.150Z,95.6
2019-02-17T10:26:03.661Z,95.6
2019-02-17T10:27:03.216Z,95.4
2019-02-17T10:28:03.471Z,96.3
2019-02-17T10:29:03.083Z,96.1
2019-02-17T10:30:03.738Z,97.3
2019-02-17T10:31:03.851Z,98.4
2019-02-17T10:32:03.501Z,98.9
2019-02-17T10:33:03.666Z,101.2
2019-02-17T10:34:03.139Z,101.2
2019-02-17T10:35:03.383Z,102.6
2019-02-17T10:36:03.136Z,102.6
2019-02-17T10:37:03.652Z,102.4
2019-02-17T10:38:02.960Z,102.4
2019-02-17T10:39:03.480Z,102.6
2019-02-17T10:40:02.968Z,103.3
2019-02-17T10:41:03.587Z,102.4
2019-02-17T10:42:03.094Z,103.1
2019-02-17T10:43:03.937Z,103.1
2019-02-17T10:44:03.623Z,106.1
2019-02-17T10:45:03.392Z,106.1
2019-02-17T10:46:06.197Z,106.8
2019-02-17T10:47:03.445Z,106.8
2019-02-17T10:48:02.938Z,106.6
2019-02-17T10:49:03.380Z,106.8
2019-02-17T10:50:03.629Z,106.8
2019-02-17T10:51:02.996Z,105.7
2019-02-17T10:52:03.230Z,105.9
2019-02-17T10:53:02.946Z,103.8
2019-02-17T10:54:03.710Z,103.8
2019-02-17T10:55:03.037Z,103.6
2019-02-17T10:56:03.041Z,105
2019-02-17T10:57:03.699Z,105
2019-02-17T10:58:02.806Z,103.8
2019-02-17T10:59:03.636Z,103.1
2019-02-17T11:00:03.237Z,103.1
2019-02-17T11:01:03.778Z,103.1
2019-02-17T11:02:03.010Z,102.9
2019-02-17T11:03:03.588Z,103.8
2019-02-17T11:04:03.140Z,103.1
2019-02-17T11:05:03.641Z,103.1
2019-02-17T11:06:03.180Z,101
2019-02-17T11:07:03.014Z,101
2019-02-17T11:08:03.094Z,101.9
2019-02-17T11:09:03.832Z,103.6
2019-02-17T11:10:02.668Z,101.9
2019-02-17T11:11:03.586Z,102.2
2019-02-17T11:12:03.808Z,104
2019-02-17T11:13:03.554Z,101.5
2019-02-17T11:14:03.283Z,101.5
2019-02-17T11:15:03.548Z,100.3
2019-02-17T11:16:03.013Z,100.3
2019-02-17T11:17:09.009Z,99.1
2019-02-17T11:18:03.057Z,99.1
2019-02-17T11:19:03.700Z,99.1
2019-02-17T11:20:03.615Z,99.6
2019-02-17T11:21:03.305Z,99.6
2019-02-17T11:22:03.968Z,98.7
2019-02-17T11:23:03.349Z,98.7
2019-02-17T11:24:03.035Z,97.7
2019-02-17T11:25:03.375Z,97.7
2019-02-17T11:26:03.048Z,96.8
2019-02-17T11:27:03.215Z,97
2019-02-17T11:28:03.576Z,96.6
2019-02-17T11:29:02.823Z,96.6
2019-02-17T11:30:05.650Z,98
2019-02-17T11:31:03.081Z,99.6
2019-02-17T11:32:03.608Z,99.6
2019-02-17T11:33:02.933Z,99.4
2019-02-17T11:34:03.501Z,98.4
2019-02-17T11:35:02.872Z,97
2019-02-17T11:36:03.264Z,97.7
2019-02-17T11:37:03.608Z,96.6
2019-02-17T11:38:03.359Z,96.6
2019-02-17T11:39:03.691Z,95.4
2019-02-17T11:40:03.393Z,95.4
2019-02-17T11:41:03.956Z,94.5
2019-02-17T11:42:03.149Z,94.7
2019-02-17T11:43:03.677Z,93.5
2019-02-17T11:44:03.426Z,93.3
2019-02-17T11:45:03.494Z,92.4
2019-02-17T11:46:03.447Z,94.5
2019-02-17T11:47:03.137Z,91.4
2019-02-17T11:48:03.868Z,92.6
2019-02-17T11:49:03.609Z,92.6
2019-02-17T11:50:04.003Z,92.4
2019-02-17T11:51:03.206Z,93.3
2019-02-17T11:52:03.673Z,93.3
2019-02-17T11:53:03.039Z,94
2019-02-17T11:54:03.551Z,95.6
2019-02-17T11:55:03.872Z,98.4
2019-02-17T11:56:03.527Z,98.4
2019-02-17T11:57:03.125Z,97
2019-02-17T11:58:03.636Z,97.5
2019-02-17T11:59:02.925Z,96.3
2019-02-17T12:00:03.469Z,96.3
2019-02-17T12:01:05.741Z,95.6
2019-02-17T12:02:03.611Z,93.5
2019-02-17T12:03:08.746Z,93.5
2019-02-17T12:04:03.175Z,93.8
2019-02-17T12:05:03.854Z,94.7
2019-02-17T12:06:03.647Z,96.3
2019-02-17T12:07:03.576Z,96.3
2019-02-17T12:08:02.966Z,97.3
2019-02-17T12:09:03.603Z,97.3
2019-02-17T12:10:03.017Z,96.6
2019-02-17T12:11:03.448Z,96.6
2019-02-17T12:12:03.650Z,97.5
2019-02-17T12:13:03.517Z,96.8
2019-02-17T12:14:03.661Z,97.5
2019-02-17T12:15:04.051Z,97.5
2019-02-17T12:16:03.777Z,98
2019-02-17T12:17:03.482Z,99.8
2019-02-17T12:18:03.730Z,98
2019-02-17T12:19:02.938Z,97.5
2019-02-17T12:20:03.672Z,97.5
2019-02-17T12:21:02.753Z,96.3
2019-02-17T12:22:03.346Z,96.3
2019-02-17T12:23:03.027Z,96.1
2019-02-17T12:24:03.530Z,96.1
2019-02-17T12:25:02.988Z,96.1
2019-02-17T12:26:03.332Z,96.3
2019-02-17T12:27:03.918Z,96.3
2019-02-17T12:28:03.221Z,96.3
2019-02-17T12:29:03.812Z,95.4
2019-02-17T12:30:03.222Z,92.6
2019-02-17T12:31:03.850Z,92.6
2019-02-17T12:32:03.139Z,93.5
2019-02-17T12:33:03.319Z,94.2
2019-02-17T12:34:02.963Z,94.2
2019-02-17T12:35:02.982Z,94.5
2019-02-17T12:36:02.962Z,96.1
2019-02-17T12:37:03.741Z,97.3
2019-02-17T12:38:03.021Z,98
2019-02-17T12:39:03.507Z,97.7
2019-02-17T12:40:03.748Z,99.6
2019-02-17T12:41:03.020Z,99.4
2019-02-17T12:42:02.793Z,99.4
2019-02-17T12:43:02.862Z,99.1
2019-02-17T12:44:03.418Z,99.1
2019-02-17T12:45:03.038Z,99.1
2019-02-17T12:46:03.602Z,99.1
2019-02-17T12:47:03.760Z,96.6
2019-02-17T12:48:03.609Z,98.9
2019-02-17T12:49:03.758Z,96.8
2019-02-17T12:50:05.391Z,99.4
2019-02-17T12:51:03.544Z,99.4
2019-02-17T12:52:03.164Z,99.6
2019-02-17T12:53:03.165Z,99.6
2019-02-17T12:54:03.901Z,97.7
2019-02-17T12:55:03.612Z,97.7
2019-02-17T12:56:03.713Z,97
2019-02-17T12:57:03.575Z,97.7
2019-02-17T12:58:03.967Z,97.7
2019-02-17T12:59:03.021Z,98.9
2019-02-17T13:00:03.260Z,99.8
2019-02-17T13:01:03.400Z,101.9
2019-02-17T13:02:02.796Z,101.9
2019-02-17T13:03:03.334Z,102.2
2019-02-17T13:04:03.541Z,102.9
2019-02-17T13:05:03.176Z,101.9
2019-02-17T13:06:03.611Z,101.9
2019-02-17T13:07:03.524Z,101
2019-02-17T13:08:03.087Z,100.3
2019-02-17T13:09:03.415Z,100.1
2019-02-17T13:10:02.854Z,100.3
2019-02-17T13:11:03.131Z,100.5
2019-02-17T13:12:03.559Z,99.4
2019-02-17T13:13:05.092Z,99.8
2019-02-17T13:14:03.351Z,100.1
2019-02-17T13:15:03.830Z,100.1
2019-02-17T13:16:03.832Z,98.7
2019-02-17T13:17:03.425Z,98.7
2019-02-17T13:18:03.289Z,98
2019-02-17T13:19:03.546Z,98.9
2019-02-17T13:20:03.515Z,97.5